メインページ
METAR-TAF:

METAR-TAF

空港 :

テターボロ空港

テターボロ, ニュージャージー州, アメリカ合衆国

緯度: 40-51-32N, 経度: 074-03-24W, 海抜: 2m

現時点の気象観測

当レポートは42分前の17:51(UTC)に作成
南/南東の風 5kt
気温 24°C
湿度 61%
気圧 1022 hPa
視程: 16.1km
晴天

METAR: KTEB 261751Z 16005KT 10SM CLR 24/16 A3018 RMK AO2 SLP220 T02390161 10239 20156 58010

時間: 14:33 (18:33 UTC)

予報

当レポートは1時間5分前の17:28(UTC)に作成
予報は26日の 18時(UTC)から 27日の 24時(UTC)まで有効
の風 5kt
視程: 10km
高度1500ftの雲は散在している
27日の 0600時(UTC)から
の風 2kt
視程: 3.2km
高度400ftの曇り
27日の 1300時(UTC)から
の風 4kt
視程: 10km
高度700ftの千切れ雲あり
高度1500ftの千切れ雲あり
27日の 1500時(UTC)から
の風 6kt
視程: 10km
高度1500ftの雲は散在している

TAF: KTEB 261728Z 2618/2724 17005KT P6SM SCT015 FM270600 17002KT 2SM BR OVC004 FM271300 17004KT P6SM BKN007 BKN015 FM271500 17006KT P6SM SCT015

4,000以上の空港の気象観測と天気予報(METAR報とTAF報)

利用可能な観測所は地図上に黄色い丸と赤い丸で示す。

丸の上にカーソルを重ねると観測所名を参照できる。

次にクリックすると気象観測と天気予報を参照できる。

マップの切り替え:黒色「×」印の緑ボタンをクリックして拡大、「-」印の緑ボタンをクリックして縮小、緑色の三角印をクリックして隣りの地図に切り替え


METAR-TAF: